KRICKMQI

Guest
Details From KRIC - Richmond Intl
To KMQI - DARE CO RGNL
Flight Number -
Tags generated
Created
Modified
Stats Distance 123 nm / 228 km
Max Altitude 13,700 ft / 4,176 m
Waypoints 3
Social Downloads 2
Likes 0
Share VATSIM

Download

Looking for another format? Having issues loading an existing format? Contact us
Advertisement - Login to hide

Notes

Basic altitude profile: - Ascent Rate: 2500ft/min - Ascent Speed: 250kts - Cruise Altitude: 35000ft - Cruise Speed: 420kts - Descent Rate: 1500ft/min - Descent Speed: 250kts Options: - Use NATs: yes - Use PACOTS: yes - Use low airways: yes - Use high airways: yes

Route

KRIC KATZN KMQI

ID Type Via Altitude Latitude Longitude Leg Dist Tot Dist Heading (true) Name
O KRIC APT - 0 ft / 0 m 37.50473˚ -77.32011˚ - 0 nm - Richmond Intl
KATZN FIX - 13,700 ft / 4,176 m 36.96868˚ -76.78340˚ 41 nm 41 nm 141° / 142° -
O KMQI APT - 0 ft / 0 m 35.91904˚ -75.69543˚ 82 nm 123 nm 140° / 140° DARE CO RGNL

Altitude Profile

Advertisement - Login to hide

KRIC

Details ICAO KRIC (RIC)
Name Richmond Intl
Region United States
Timezone America/New_York (UTC-5.0)
Stats Elevation 167 ft / 51 m (AMSL)
Location 37.504728° -77.320112°
Runways 3
Magnetic Variation 10.381° W

METAR

KRIC 141654Z 34011KT 10SM FEW070 BKN300 11/M05 A2981 RMK AO2 SLP101 T01061050

Decode

TAF

KRIC 141133Z 1412/1512 21011KT P6SM SCT080 FM141300 24013G21KT P6SM SCT150 FM141500 28013G21KT P6SM SCT200 FM141800 31011G18KT P6SM SCT200 FM142100 34007KT P6SM SCT250 FM150000 03004KT P6SM BKN200

Decode

Departure Runways

ID Width Length Bearing (true) Bearing (mag) Surface Threshold Offset Overrun Length
02 151 ft / 46 m 6,619 ft / 2,018 m 13.39° 23.77° Asphalt 0 ft / 0 m 125 ft / 38 m
07 98 ft / 30 m 5,312 ft / 1,619 m 57.36° 67.74° Asphalt 0 ft / 0 m 200 ft / 61 m
16 151 ft / 46 m 9,027 ft / 2,751 m 147.64° 158.02° Asphalt 0 ft / 0 m 1,001 ft / 305 m
20 151 ft / 46 m 6,619 ft / 2,018 m 193.39° 203.77° Asphalt 0 ft / 0 m 276 ft / 84 m
25 98 ft / 30 m 5,312 ft / 1,619 m 237.36° 247.74° Asphalt 0 ft / 0 m 0 ft / 0 m
34 151 ft / 46 m 9,027 ft / 2,751 m 327.66° 338.04° Asphalt 0 ft / 0 m 1,001 ft / 305 m

KMQI

Details ICAO KMQI
Name DARE CO RGNL
Region United States
Timezone America/New_York (UTC-5.0)
Stats Elevation 14 ft / 4 m (AMSL)
Location 35.919044° -75.695427°
Runways 2
Magnetic Variation 11.001° W

METAR

KMQI 141645Z AUTO 30007KT 10SM CLR 11/M01 A2983 RMK AO2 T01051009

Decode

TAF

Not found

Destination Runways

ID Width Length Bearing (true) Bearing (mag) Surface Threshold Offset Overrun Length
05 100 ft / 30 m 4,303 ft / 1,312 m 37.92° 48.92° Asphalt 335 ft / 102 m 0 ft / 0 m
17 75 ft / 23 m 3,308 ft / 1,008 m 158.10° 169.10° Asphalt 300 ft / 91 m 0 ft / 0 m
23 100 ft / 30 m 4,303 ft / 1,312 m 217.93° 228.93° Asphalt 300 ft / 91 m 0 ft / 0 m
35 75 ft / 23 m 3,308 ft / 1,008 m 338.10° 349.10° Asphalt 1,000 ft / 305 m 0 ft / 0 m